ITY27F EGLL-LIPX
Flight info
| Callsign | ITY27F |
|---|---|
| Flight time | 1h 37m |
| Altitude | 39000 |
| Route | DET Q70 ITVIP L10 DVR UL9 KONAN UL607 KOK M150 PITES DCT MOPAN DCT RENTA DCT MOVOR DCT NEVNI |
| Aircraft | A21N/M-SDE3FGHIRWY/LB1 |
Departure
| Time | 2026-04-24 15:28 |
|---|---|
| Airport | London Heathrow Airport (EGLL) |
Arrival
| Time | 2026-04-24 17:05 |
|---|---|
| Airport | Verona Villafranca Valerio Catullo Airport (LIPX) |
| Time | Latitude | Longitude | Altitude | Speed | Heading |
|---|---|---|---|---|---|
| 2026-04-24 15:02 | 51.46996 | -0.44671 | 92 ft | 0 kts | 270° |
| 2026-04-24 15:15 | 51.46996 | -0.44665 | 93 ft | 2 kts | 270° |
| 2026-04-24 15:15 | 51.46996 | -0.44640 | 93 ft | 2 kts | 270° |
| 2026-04-24 15:15 | 51.46996 | -0.44614 | 93 ft | 2 kts | 270° |
| 2026-04-24 15:16 | 51.46996 | -0.44596 | 93 ft | 2 kts | 270° |
| 2026-04-24 15:16 | 51.47001 | -0.44569 | 93 ft | 2 kts | 229° |
| 2026-04-24 15:16 | 51.47014 | -0.44554 | 93 ft | 2 kts | 195° |
| 2026-04-24 15:16 | 51.47024 | -0.44552 | 93 ft | 1 kts | 174° |
| 2026-04-24 15:17 | 51.47028 | -0.44553 | 93 ft | 0 kts | 179° |
| 2026-04-24 15:19 | 51.47024 | -0.44553 | 93 ft | 1 kts | 179° |
| 2026-04-24 15:19 | 51.47007 | -0.44552 | 93 ft | 3 kts | 179° |
| 2026-04-24 15:20 | 51.46972 | -0.44550 | 93 ft | 5 kts | 179° |
| 2026-04-24 15:20 | 51.46924 | -0.44550 | 93 ft | 7 kts | 180° |
| 2026-04-24 15:20 | 51.46862 | -0.44551 | 93 ft | 9 kts | 181° |
| 2026-04-24 15:20 | 51.46783 | -0.44551 | 93 ft | 10 kts | 180° |
| 2026-04-24 15:21 | 51.46699 | -0.44554 | 93 ft | 11 kts | 194° |
| 2026-04-24 15:21 | 51.46665 | -0.44660 | 93 ft | 11 kts | 264° |
| 2026-04-24 15:21 | 51.46664 | -0.44797 | 93 ft | 12 kts | 270° |
| 2026-04-24 15:21 | 51.46664 | -0.44948 | 93 ft | 13 kts | 270° |
| 2026-04-24 15:22 | 51.46663 | -0.45108 | 93 ft | 14 kts | 270° |
| 2026-04-24 15:22 | 51.46662 | -0.45277 | 93 ft | 14 kts | 270° |
| 2026-04-24 15:22 | 51.46662 | -0.45447 | 93 ft | 15 kts | 270° |
| 2026-04-24 15:23 | 51.46661 | -0.45818 | 93 ft | 16 kts | 270° |
| 2026-04-24 15:23 | 51.46658 | -0.46202 | 93 ft | 16 kts | 270° |
| 2026-04-24 15:23 | 51.46658 | -0.46388 | 93 ft | 15 kts | 270° |
| 2026-04-24 15:24 | 51.46656 | -0.46846 | 93 ft | 0 kts | 269° |
| 2026-04-24 15:25 | 51.46656 | -0.46886 | 93 ft | 3 kts | 269° |
| 2026-04-24 15:25 | 51.46656 | -0.47087 | 93 ft | 12 kts | 271° |
| 2026-04-24 15:26 | 51.46655 | -0.47765 | 93 ft | 19 kts | 270° |
| 2026-04-24 15:27 | 51.46573 | -0.48215 | 93 ft | 12 kts | 179° |
| 2026-04-24 15:27 | 51.46480 | -0.47202 | 93 ft | 107 kts | 89° |
| 2026-04-24 15:28 | 51.45691 | -0.39591 | 2116 ft | 196 kts | 126° |
| 2026-04-24 15:29 | 51.44554 | -0.35213 | 3274 ft | 223 kts | 108° |
| 2026-04-24 15:30 | 51.42568 | -0.27120 | 5082 ft | 261 kts | 105° |
| 2026-04-24 15:31 | 51.41004 | -0.15566 | 6412 ft | 275 kts | 102° |
| 2026-04-24 15:32 | 51.39045 | -0.01336 | 10313 ft | 287 kts | 103° |
| 2026-04-24 15:33 | 51.37362 | 0.10730 | 12905 ft | 307 kts | 103° |
| 2026-04-24 15:33 | 51.35768 | 0.22059 | 15217 ft | 319 kts | 103° |
| 2026-04-24 15:34 | 51.34780 | 0.29047 | 16496 ft | 327 kts | 103° |
| 2026-04-24 15:35 | 51.33601 | 0.38665 | 17442 ft | 334 kts | 102° |
| 2026-04-24 15:35 | 51.32714 | 0.46126 | 18027 ft | 338 kts | 102° |
| 2026-04-24 15:35 | 51.32120 | 0.51064 | 18437 ft | 340 kts | 102° |
| 2026-04-24 15:36 | 51.31672 | 0.54771 | 18760 ft | 343 kts | 102° |
| 2026-04-24 15:36 | 51.30762 | 0.62239 | 19374 ft | 348 kts | 102° |
| 2026-04-24 15:36 | 51.30296 | 0.66043 | 19675 ft | 350 kts | 103° |
| 2026-04-24 15:37 | 51.29822 | 0.69905 | 19983 ft | 352 kts | 103° |
| 2026-04-24 15:37 | 51.29352 | 0.73720 | 20274 ft | 355 kts | 103° |
| 2026-04-24 15:37 | 51.29034 | 0.76301 | 20477 ft | 356 kts | 103° |
| 2026-04-24 15:37 | 51.28394 | 0.81474 | 20882 ft | 359 kts | 103° |
| 2026-04-24 15:38 | 51.27908 | 0.85390 | 21186 ft | 362 kts | 103° |
| 2026-04-24 15:38 | 51.27416 | 0.89345 | 21484 ft | 364 kts | 103° |
| 2026-04-24 15:38 | 51.26921 | 0.93309 | 21778 ft | 366 kts | 103° |
| 2026-04-24 15:38 | 51.26426 | 0.97267 | 22074 ft | 369 kts | 103° |
| 2026-04-24 15:39 | 51.25922 | 1.01274 | 22373 ft | 371 kts | 103° |
| 2026-04-24 15:39 | 51.25414 | 1.05315 | 22680 ft | 373 kts | 103° |
| 2026-04-24 15:39 | 51.25072 | 1.08025 | 22879 ft | 375 kts | 103° |
| 2026-04-24 15:39 | 51.24384 | 1.13458 | 23275 ft | 378 kts | 103° |
| 2026-04-24 15:40 | 51.23861 | 1.17577 | 23572 ft | 380 kts | 103° |
| 2026-04-24 15:40 | 51.23333 | 1.21720 | 23867 ft | 383 kts | 103° |
| 2026-04-24 15:40 | 51.22800 | 1.25874 | 24173 ft | 385 kts | 103° |
| 2026-04-24 15:40 | 51.22267 | 1.30027 | 24462 ft | 388 kts | 103° |
| 2026-04-24 15:41 | 51.21727 | 1.34228 | 24772 ft | 391 kts | 103° |
| 2026-04-24 15:41 | 51.21178 | 1.38473 | 25073 ft | 393 kts | 103° |
| 2026-04-24 15:41 | 51.20813 | 1.41304 | 25290 ft | 394 kts | 103° |
| 2026-04-24 15:41 | 51.20070 | 1.47037 | 25703 ft | 397 kts | 103° |
| 2026-04-24 15:42 | 51.19513 | 1.51318 | 25992 ft | 399 kts | 103° |
| 2026-04-24 15:42 | 51.18947 | 1.55653 | 26307 ft | 401 kts | 103° |
| 2026-04-24 15:42 | 51.18382 | 1.59963 | 26617 ft | 403 kts | 103° |
| 2026-04-24 15:42 | 51.17807 | 1.64339 | 26946 ft | 406 kts | 103° |
| 2026-04-24 15:43 | 51.17226 | 1.68757 | 27246 ft | 408 kts | 103° |
| 2026-04-24 15:43 | 51.16645 | 1.73153 | 27561 ft | 410 kts | 103° |
| 2026-04-24 15:43 | 51.16058 | 1.77585 | 27888 ft | 413 kts | 103° |
| 2026-04-24 15:43 | 51.15460 | 1.82082 | 28205 ft | 416 kts | 103° |
| 2026-04-24 15:44 | 51.14865 | 1.86542 | 28639 ft | 418 kts | 103° |
| 2026-04-24 15:44 | 51.14259 | 1.91068 | 29051 ft | 420 kts | 103° |
| 2026-04-24 15:44 | 51.13651 | 1.95603 | 29426 ft | 422 kts | 103° |
| 2026-04-24 15:44 | 51.13124 | 2.00209 | 29801 ft | 425 kts | 99° |
| 2026-04-24 15:45 | 51.12775 | 2.04883 | 30165 ft | 428 kts | 96° |
| 2026-04-24 15:45 | 51.12520 | 2.09555 | 30509 ft | 430 kts | 95° |
| 2026-04-24 15:45 | 51.12277 | 2.14282 | 30854 ft | 433 kts | 95° |
| 2026-04-24 15:45 | 51.12029 | 2.19076 | 31205 ft | 435 kts | 95° |
| 2026-04-24 15:46 | 51.11777 | 2.23837 | 31529 ft | 438 kts | 95° |
| 2026-04-24 15:46 | 51.11604 | 2.27054 | 31753 ft | 439 kts | 95° |
| 2026-04-24 15:46 | 51.11252 | 2.33486 | 32204 ft | 442 kts | 95° |
| 2026-04-24 15:46 | 51.10981 | 2.38386 | 32553 ft | 443 kts | 96° |
| 2026-04-24 15:47 | 51.10711 | 2.43210 | 32879 ft | 445 kts | 96° |
| 2026-04-24 15:47 | 51.10434 | 2.48117 | 33194 ft | 447 kts | 96° |
| 2026-04-24 15:47 | 51.10127 | 2.53048 | 33520 ft | 448 kts | 97° |
| 2026-04-24 15:47 | 51.09648 | 2.57901 | 33829 ft | 449 kts | 102° |
| 2026-04-24 15:48 | 51.08954 | 2.62746 | 34123 ft | 451 kts | 106° |
| 2026-04-24 15:48 | 51.08048 | 2.67513 | 34403 ft | 452 kts | 111° |
| 2026-04-24 15:48 | 51.06933 | 2.72174 | 34668 ft | 452 kts | 115° |
| 2026-04-24 15:48 | 51.05630 | 2.76661 | 34932 ft | 452 kts | 119° |
| 2026-04-24 15:49 | 51.04160 | 2.81109 | 35199 ft | 453 kts | 120° |
| 2026-04-24 15:49 | 51.02679 | 2.85507 | 35446 ft | 455 kts | 120° |
| 2026-04-24 15:49 | 51.01208 | 2.89872 | 35691 ft | 456 kts | 120° |
| 2026-04-24 15:49 | 50.99719 | 2.94295 | 36296 ft | 455 kts | 120° |
| 2026-04-24 15:50 | 50.98228 | 2.98728 | 36725 ft | 452 kts | 120° |
| 2026-04-24 15:50 | 50.96758 | 3.03103 | 37116 ft | 450 kts | 120° |
| 2026-04-24 15:50 | 50.95306 | 3.07418 | 37439 ft | 449 kts | 120° |
| 2026-04-24 15:50 | 50.93846 | 3.11756 | 37696 ft | 449 kts | 120° |
| 2026-04-24 15:51 | 50.92372 | 3.16124 | 37890 ft | 451 kts | 120° |
| 2026-04-24 15:51 | 50.90888 | 3.20518 | 38080 ft | 452 kts | 120° |
| 2026-04-24 15:51 | 50.89422 | 3.24848 | 38278 ft | 453 kts | 120° |
| 2026-04-24 15:51 | 50.87930 | 3.29249 | 38481 ft | 453 kts | 120° |
| 2026-04-24 15:52 | 50.86941 | 3.32160 | 38651 ft | 453 kts | 120° |
| 2026-04-24 15:52 | 50.84985 | 3.37918 | 39191 ft | 447 kts | 120° |
| 2026-04-24 15:52 | 50.82510 | 3.45179 | 39211 ft | 454 kts | 120° |
| 2026-04-24 15:53 | 50.79513 | 3.53938 | 39200 ft | 456 kts | 120° |
| 2026-04-24 15:53 | 50.75983 | 3.64218 | 39205 ft | 457 kts | 120° |
| 2026-04-24 15:54 | 50.72960 | 3.72993 | 39201 ft | 457 kts | 121° |
| 2026-04-24 15:54 | 50.69926 | 3.81765 | 39200 ft | 457 kts | 121° |
| 2026-04-24 15:55 | 50.66896 | 3.90500 | 39196 ft | 456 kts | 121° |
| 2026-04-24 15:55 | 50.63864 | 3.99204 | 39194 ft | 455 kts | 121° |
| 2026-04-24 15:56 | 50.60823 | 4.07909 | 39197 ft | 455 kts | 121° |
| 2026-04-24 15:56 | 50.57782 | 4.16585 | 39195 ft | 455 kts | 121° |
| 2026-04-24 15:57 | 50.54726 | 4.25273 | 39199 ft | 455 kts | 121° |
| 2026-04-24 15:57 | 50.51682 | 4.33897 | 39199 ft | 455 kts | 121° |
| 2026-04-24 15:58 | 50.48611 | 4.42565 | 39202 ft | 455 kts | 121° |
| 2026-04-24 15:58 | 50.45532 | 4.51233 | 39202 ft | 455 kts | 121° |
| 2026-04-24 15:59 | 50.42467 | 4.59831 | 39201 ft | 454 kts | 121° |
| 2026-04-24 15:59 | 50.39395 | 4.68419 | 39196 ft | 453 kts | 122° |
| 2026-04-24 16:00 | 50.36312 | 4.77005 | 39194 ft | 453 kts | 122° |
| 2026-04-24 16:00 | 50.33231 | 4.85562 | 39189 ft | 453 kts | 122° |
| 2026-04-24 16:01 | 50.30133 | 4.94137 | 39186 ft | 452 kts | 122° |
| 2026-04-24 16:01 | 50.26954 | 5.02904 | 39177 ft | 453 kts | 122° |
| 2026-04-24 16:02 | 50.23773 | 5.11651 | 39174 ft | 453 kts | 123° |
| 2026-04-24 16:02 | 50.20596 | 5.20364 | 39170 ft | 452 kts | 123° |
| 2026-04-24 16:03 | 50.17500 | 5.28821 | 39172 ft | 451 kts | 123° |
| 2026-04-24 16:03 | 50.14389 | 5.37286 | 39173 ft | 451 kts | 123° |
| 2026-04-24 16:04 | 50.11275 | 5.45716 | 39172 ft | 450 kts | 123° |
| 2026-04-24 16:04 | 50.08129 | 5.54208 | 39164 ft | 450 kts | 123° |
| 2026-04-24 16:05 | 50.03404 | 5.66922 | 39171 ft | 451 kts | 123° |
| 2026-04-24 16:06 | 49.99218 | 5.78137 | 39171 ft | 450 kts | 124° |
| 2026-04-24 16:07 | 49.93988 | 5.92085 | 39167 ft | 450 kts | 124° |
| 2026-04-24 16:07 | 49.89271 | 6.04604 | 39167 ft | 450 kts | 124° |
| 2026-04-24 16:08 | 49.84663 | 6.17207 | 39162 ft | 450 kts | 121° |
| 2026-04-24 16:09 | 49.80324 | 6.30007 | 39172 ft | 450 kts | 121° |
| 2026-04-24 16:09 | 49.77412 | 6.38552 | 39170 ft | 450 kts | 121° |
| 2026-04-24 16:10 | 49.72242 | 6.50492 | 39160 ft | 444 kts | 134° |
| 2026-04-24 16:11 | 49.67932 | 6.57240 | 39156 ft | 440 kts | 142° |
| 2026-04-24 16:11 | 49.63116 | 6.62992 | 39155 ft | 438 kts | 147° |
| 2026-04-24 16:12 | 49.55761 | 6.71324 | 39153 ft | 438 kts | 147° |
| 2026-04-24 16:13 | 49.48455 | 6.79594 | 39148 ft | 438 kts | 147° |
| 2026-04-24 16:14 | 49.38667 | 6.90639 | 39142 ft | 437 kts | 147° |
| 2026-04-24 16:14 | 49.31347 | 6.98866 | 39140 ft | 437 kts | 147° |
| 2026-04-24 16:15 | 49.24015 | 7.07075 | 39145 ft | 437 kts | 147° |
| 2026-04-24 16:16 | 49.17490 | 7.14355 | 39143 ft | 438 kts | 147° |
| 2026-04-24 16:17 | 49.04366 | 7.28921 | 39130 ft | 438 kts | 147° |
| 2026-04-24 16:18 | 48.94532 | 7.39774 | 39125 ft | 438 kts | 147° |
| 2026-04-24 16:19 | 48.87975 | 7.46982 | 39124 ft | 438 kts | 147° |
| 2026-04-24 16:20 | 48.79782 | 7.55953 | 39122 ft | 439 kts | 147° |
| 2026-04-24 16:20 | 48.72349 | 7.64059 | 39123 ft | 439 kts | 146° |
| 2026-04-24 16:21 | 48.64941 | 7.72111 | 39128 ft | 439 kts | 147° |
| 2026-04-24 16:22 | 48.60826 | 7.76569 | 39127 ft | 438 kts | 147° |
| 2026-04-24 16:22 | 48.52583 | 7.85475 | 39125 ft | 438 kts | 147° |
| 2026-04-24 16:23 | 48.47657 | 7.90782 | 39125 ft | 438 kts | 147° |
| 2026-04-24 16:24 | 48.40238 | 7.98748 | 39125 ft | 438 kts | 147° |
| 2026-04-24 16:24 | 48.35200 | 8.04146 | 39127 ft | 439 kts | 146° |
| 2026-04-24 16:25 | 48.30108 | 8.09585 | 39132 ft | 439 kts | 146° |
| 2026-04-24 16:25 | 48.25130 | 8.15118 | 39132 ft | 440 kts | 142° |
| 2026-04-24 16:26 | 48.18447 | 8.24451 | 39131 ft | 441 kts | 137° |
| 2026-04-24 16:27 | 48.12603 | 8.33019 | 39133 ft | 441 kts | 137° |
| 2026-04-24 16:27 | 48.07504 | 8.40467 | 39135 ft | 442 kts | 137° |
| 2026-04-24 16:28 | 48.03131 | 8.46836 | 39136 ft | 442 kts | 137° |
| 2026-04-24 16:28 | 47.96541 | 8.56405 | 39139 ft | 442 kts | 137° |
| 2026-04-24 16:29 | 47.92124 | 8.62800 | 39141 ft | 442 kts | 137° |
| 2026-04-24 16:30 | 47.84046 | 8.74456 | 39144 ft | 442 kts | 137° |
| 2026-04-24 16:30 | 47.78903 | 8.81844 | 39140 ft | 442 kts | 137° |
| 2026-04-24 16:31 | 47.74498 | 8.88157 | 39142 ft | 443 kts | 137° |
| 2026-04-24 16:31 | 47.70038 | 8.94530 | 39146 ft | 443 kts | 137° |
| 2026-04-24 16:32 | 47.65618 | 9.00833 | 39146 ft | 443 kts | 137° |
| 2026-04-24 16:32 | 47.61915 | 9.06103 | 39152 ft | 443 kts | 137° |
| 2026-04-24 16:33 | 47.57488 | 9.12389 | 39148 ft | 443 kts | 137° |
| 2026-04-24 16:33 | 47.52307 | 9.19725 | 39144 ft | 443 kts | 137° |
| 2026-04-24 16:34 | 47.47844 | 9.26026 | 39139 ft | 443 kts | 137° |
| 2026-04-24 16:34 | 47.43413 | 9.32265 | 39141 ft | 444 kts | 136° |
| 2026-04-24 16:35 | 47.38939 | 9.38549 | 39143 ft | 445 kts | 136° |
| 2026-04-24 16:35 | 47.34488 | 9.44789 | 39134 ft | 445 kts | 136° |
| 2026-04-24 16:36 | 47.30005 | 9.51056 | 39129 ft | 445 kts | 136° |
| 2026-04-24 16:36 | 47.25515 | 9.57319 | 39142 ft | 445 kts | 136° |
| 2026-04-24 16:37 | 47.21056 | 9.63524 | 39164 ft | 445 kts | 136° |
| 2026-04-24 16:37 | 47.16546 | 9.69783 | 39179 ft | 446 kts | 137° |
| 2026-04-24 16:38 | 47.12791 | 9.74979 | 39194 ft | 446 kts | 136° |
| 2026-04-24 16:38 | 47.08295 | 9.81192 | 38915 ft | 446 kts | 136° |
| 2026-04-24 16:39 | 47.05285 | 9.85342 | 38504 ft | 442 kts | 136° |
| 2026-04-24 16:39 | 47.03804 | 9.87382 | 38160 ft | 440 kts | 136° |
| 2026-04-24 16:39 | 47.00820 | 9.91489 | 36743 ft | 449 kts | 136° |
| 2026-04-24 16:39 | 46.98564 | 9.94587 | 35674 ft | 454 kts | 136° |
| 2026-04-24 16:40 | 46.96255 | 9.97752 | 34763 ft | 455 kts | 136° |
| 2026-04-24 16:40 | 46.93944 | 10.00916 | 34175 ft | 450 kts | 136° |
| 2026-04-24 16:40 | 46.91709 | 10.03973 | 33676 ft | 445 kts | 135° |
| 2026-04-24 16:40 | 46.89465 | 10.07039 | 33133 ft | 441 kts | 135° |
| 2026-04-24 16:41 | 46.87231 | 10.10089 | 32577 ft | 437 kts | 135° |
| 2026-04-24 16:41 | 46.85033 | 10.13088 | 32029 ft | 433 kts | 135° |
| 2026-04-24 16:41 | 46.82856 | 10.16054 | 31482 ft | 429 kts | 135° |
| 2026-04-24 16:41 | 46.80678 | 10.19017 | 30941 ft | 426 kts | 135° |
| 2026-04-24 16:42 | 46.78521 | 10.21950 | 30396 ft | 422 kts | 135° |
| 2026-04-24 16:42 | 46.76392 | 10.24840 | 29838 ft | 419 kts | 134° |
| 2026-04-24 16:42 | 46.74271 | 10.27718 | 29293 ft | 415 kts | 134° |
| 2026-04-24 16:42 | 46.72176 | 10.30557 | 28753 ft | 412 kts | 134° |
| 2026-04-24 16:43 | 46.70810 | 10.32406 | 28405 ft | 410 kts | 134° |
| 2026-04-24 16:43 | 46.68032 | 10.36164 | 27571 ft | 408 kts | 134° |
| 2026-04-24 16:43 | 46.65966 | 10.38955 | 27050 ft | 405 kts | 134° |
| 2026-04-24 16:43 | 46.63904 | 10.41736 | 26567 ft | 401 kts | 134° |
| 2026-04-24 16:44 | 46.61891 | 10.44447 | 26103 ft | 397 kts | 134° |
| 2026-04-24 16:44 | 46.60549 | 10.46253 | 25794 ft | 394 kts | 134° |
| 2026-04-24 16:44 | 46.57885 | 10.49836 | 25181 ft | 389 kts | 134° |
| 2026-04-24 16:44 | 46.55912 | 10.52486 | 24726 ft | 385 kts | 134° |
| 2026-04-24 16:45 | 46.53959 | 10.55108 | 24277 ft | 382 kts | 134° |
| 2026-04-24 16:45 | 46.52039 | 10.57681 | 23833 ft | 378 kts | 134° |
| 2026-04-24 16:45 | 46.50111 | 10.60263 | 23381 ft | 375 kts | 134° |
| 2026-04-24 16:45 | 46.48208 | 10.62812 | 22938 ft | 373 kts | 134° |
| 2026-04-24 16:46 | 46.46309 | 10.65352 | 22492 ft | 370 kts | 135° |
| 2026-04-24 16:46 | 46.44428 | 10.67864 | 22045 ft | 367 kts | 135° |
| 2026-04-24 16:46 | 46.42577 | 10.70334 | 21603 ft | 365 kts | 135° |
| 2026-04-24 16:46 | 46.40714 | 10.72820 | 21163 ft | 363 kts | 135° |
| 2026-04-24 16:47 | 46.38866 | 10.75281 | 20726 ft | 360 kts | 135° |
| 2026-04-24 16:47 | 46.37649 | 10.76900 | 20435 ft | 359 kts | 135° |
| 2026-04-24 16:47 | 46.35209 | 10.80143 | 19853 ft | 355 kts | 135° |
| 2026-04-24 16:47 | 46.33397 | 10.82548 | 19419 ft | 353 kts | 135° |
| 2026-04-24 16:48 | 46.31519 | 10.84825 | 18954 ft | 353 kts | 146° |
| 2026-04-24 16:48 | 46.29252 | 10.86096 | 18516 ft | 355 kts | 169° |
| 2026-04-24 16:48 | 46.26798 | 10.86182 | 18106 ft | 353 kts | 182° |
| 2026-04-24 16:48 | 46.25164 | 10.86028 | 17823 ft | 352 kts | 183° |
| 2026-04-24 16:49 | 46.21928 | 10.85698 | 17262 ft | 349 kts | 183° |
| 2026-04-24 16:49 | 46.19525 | 10.85466 | 16840 ft | 348 kts | 183° |
| 2026-04-24 16:49 | 46.17104 | 10.85247 | 16412 ft | 346 kts | 182° |
| 2026-04-24 16:49 | 46.14703 | 10.85039 | 15981 ft | 345 kts | 182° |
| 2026-04-24 16:50 | 46.13931 | 10.84974 | 15839 ft | 345 kts | 182° |
| 2026-04-24 16:50 | 46.09944 | 10.84642 | 15115 ft | 343 kts | 182° |
| 2026-04-24 16:50 | 46.07563 | 10.84447 | 14685 ft | 341 kts | 182° |
| 2026-04-24 16:50 | 46.05191 | 10.84254 | 14261 ft | 339 kts | 182° |
| 2026-04-24 16:51 | 46.02825 | 10.84062 | 13851 ft | 337 kts | 182° |
| 2026-04-24 16:51 | 46.01293 | 10.83937 | 13585 ft | 336 kts | 182° |
| 2026-04-24 16:51 | 45.98053 | 10.83675 | 13001 ft | 334 kts | 182° |
| 2026-04-24 16:51 | 45.95605 | 10.83479 | 12559 ft | 333 kts | 182° |
| 2026-04-24 16:52 | 45.93264 | 10.83290 | 12136 ft | 331 kts | 182° |
| 2026-04-24 16:52 | 45.90852 | 10.83095 | 11700 ft | 330 kts | 182° |
| 2026-04-24 16:52 | 45.88517 | 10.82907 | 11263 ft | 328 kts | 183° |
| 2026-04-24 16:52 | 45.86212 | 10.82721 | 10916 ft | 322 kts | 183° |
| 2026-04-24 16:53 | 45.84715 | 10.82599 | 10711 ft | 318 kts | 183° |
| 2026-04-24 16:53 | 45.81764 | 10.82047 | 10267 ft | 310 kts | 194° |
| 2026-04-24 16:53 | 45.79632 | 10.80990 | 9992 ft | 302 kts | 204° |
| 2026-04-24 16:53 | 45.77691 | 10.79749 | 9844 ft | 299 kts | 206° |
| 2026-04-24 16:54 | 45.75775 | 10.78480 | 9703 ft | 299 kts | 206° |
| 2026-04-24 16:54 | 45.73874 | 10.77224 | 9582 ft | 298 kts | 205° |
| 2026-04-24 16:54 | 45.71955 | 10.75967 | 9464 ft | 298 kts | 205° |
| 2026-04-24 16:54 | 45.70054 | 10.74733 | 9328 ft | 297 kts | 205° |
| 2026-04-24 16:55 | 45.68131 | 10.73492 | 9196 ft | 297 kts | 205° |
| 2026-04-24 16:55 | 45.66222 | 10.72263 | 9082 ft | 296 kts | 205° |
| 2026-04-24 16:55 | 45.64339 | 10.71052 | 8953 ft | 296 kts | 205° |
| 2026-04-24 16:55 | 45.62449 | 10.69839 | 8838 ft | 296 kts | 205° |
| 2026-04-24 16:56 | 45.60570 | 10.68632 | 8707 ft | 295 kts | 205° |
| 2026-04-24 16:56 | 45.58718 | 10.67444 | 8564 ft | 294 kts | 205° |
| 2026-04-24 16:56 | 45.56870 | 10.66141 | 8385 ft | 292 kts | 212° |
| 2026-04-24 16:56 | 45.55212 | 10.64545 | 8147 ft | 291 kts | 217° |
| 2026-04-24 16:57 | 45.53565 | 10.62885 | 7847 ft | 290 kts | 215° |
| 2026-04-24 16:57 | 45.51820 | 10.61362 | 7462 ft | 288 kts | 210° |
| 2026-04-24 16:57 | 45.50031 | 10.60091 | 7115 ft | 286 kts | 205° |
| 2026-04-24 16:57 | 45.48185 | 10.59062 | 6772 ft | 285 kts | 199° |
| 2026-04-24 16:58 | 45.46922 | 10.58507 | 6538 ft | 284 kts | 196° |
| 2026-04-24 16:58 | 45.44381 | 10.57728 | 6061 ft | 282 kts | 189° |
| 2026-04-24 16:58 | 45.43087 | 10.57493 | 5820 ft | 281 kts | 186° |
| 2026-04-24 16:58 | 45.40476 | 10.57336 | 5338 ft | 279 kts | 180° |
| 2026-04-24 16:59 | 45.38571 | 10.57485 | 4999 ft | 276 kts | 175° |
| 2026-04-24 16:59 | 45.36684 | 10.57857 | 4757 ft | 270 kts | 171° |
| 2026-04-24 16:59 | 45.33157 | 10.59171 | 4034 ft | 258 kts | 162° |
| 2026-04-24 17:00 | 45.31514 | 10.60083 | 3718 ft | 245 kts | 158° |
| 2026-04-24 17:00 | 45.28841 | 10.62365 | 3571 ft | 221 kts | 136° |
| 2026-04-24 17:00 | 45.27913 | 10.64057 | 3511 ft | 220 kts | 120° |
| 2026-04-24 17:01 | 45.27192 | 10.68262 | 3238 ft | 223 kts | 86° |
| 2026-04-24 17:01 | 45.27472 | 10.70384 | 3152 ft | 214 kts | 68° |
| 2026-04-24 17:02 | 45.28795 | 10.73232 | 2961 ft | 206 kts | 46° |
| 2026-04-24 17:02 | 45.30111 | 10.75137 | 2652 ft | 193 kts | 44° |
| 2026-04-24 17:02 | 45.31071 | 10.76487 | 2332 ft | 185 kts | 44° |
| 2026-04-24 17:02 | 45.31995 | 10.77818 | 2093 ft | 171 kts | 45° |
| 2026-04-24 17:03 | 45.33353 | 10.79805 | 1715 ft | 150 kts | 45° |
| 2026-04-24 17:03 | 45.34288 | 10.81170 | 1467 ft | 137 kts | 44° |
| 2026-04-24 17:03 | 45.34963 | 10.82152 | 1303 ft | 137 kts | 44° |
| 2026-04-24 17:04 | 45.35629 | 10.83122 | 1115 ft | 136 kts | 44° |
| 2026-04-24 17:04 | 45.36969 | 10.85074 | 748 ft | 137 kts | 44° |
| 2026-04-24 17:04 | 45.37659 | 10.86075 | 580 ft | 136 kts | 45° |
| 2026-04-24 17:05 | 45.38348 | 10.87081 | 412 ft | 134 kts | 43° |
| 2026-04-24 17:05 | 45.38993 | 10.87999 | 251 ft | 122 kts | 45° |
| 2026-04-24 17:05 | 45.39745 | 10.89099 | 251 ft | 41 kts | 45° |
| 2026-04-24 17:06 | 45.39957 | 10.89415 | 251 ft | 37 kts | 45° |
| 2026-04-24 17:06 | 45.40276 | 10.89921 | 251 ft | 23 kts | 68° |
| 2026-04-24 17:06 | 45.40313 | 10.90114 | 251 ft | 14 kts | 76° |
| 2026-04-24 17:07 | 45.40328 | 10.90201 | 251 ft | 10 kts | 76° |
| 2026-04-24 17:07 | 45.40303 | 10.90328 | 251 ft | 11 kts | 136° |
| 2026-04-24 17:07 | 45.40266 | 10.90438 | 251 ft | 1 kts | 47° |
| 2026-04-24 17:08 | 45.40277 | 10.90477 | 251 ft | 0 kts | 110° |
| 2026-04-24 17:08 | 45.40277 | 10.90478 | 251 ft | 0 kts | 126° |
| 2026-04-24 17:08 | 45.40272 | 10.90485 | 251 ft | 0 kts | 134° |
| 2026-04-24 17:09 | 45.40262 | 10.90499 | 251 ft | 2 kts | 136° |
| 2026-04-24 17:09 | 45.40258 | 10.90505 | 251 ft | 0 kts | 136° |
| 2026-04-24 17:10 | 45.40257 | 10.90505 | 251 ft | 0 kts | 136° |
| 2026-04-24 17:10 | 45.40248 | 10.90518 | 251 ft | 0 kts | 136° |